• Back
  •  
  • Position of Reservoir Gates
S.No.
No. of opened gates
Position of opening (In m)
Reporting Date
Reporting Time
Discharge in Cumecs
Discharge in Cusecs
Actual date and time of Gate opening
1
2
3
4
5
6
7
8
1 1 0.3 06/08/2020 6:00:00 PM 47 1659.8
2 1 0.15 07/08/2020 8:00:00 AM 23.5 829.9
3 1 0.15 08/08/2020 8:00:00 AM 23.8 840.5
4 1 0.3 08/08/2020 4:00:00 PM 47.5 1677.46
5 2 0.6 08/08/2020 8:00:00 PM 188 6639.22
6 2 0.6 09/08/2020 8:00:00 AM 188.6 6660.41
7 1 0.6 10/08/2020 8:00:00 AM 94 3319.61
8 1 0.3 11/08/2020 8:00:00 AM 47 1659.8
9 0 0 11/08/2020 2:00:00 PM 0 0 All Gates are closed
10 2 0.6 13/08/2020 3:30:00 PM 192 6780.48
11 2 0.6 14/08/2020 8:00:00 AM 192 6780.48
12 1 0.6 15/08/2020 8:00:00 AM 94 3319.61
13 1 0.6 16/08/2020 8:00:00 AM 96 3390.24
14 1 0.6 17/08/2020 8:00:00 AM 96 3390.24
15 1 0.6 18/08/2020 8:00:00 AM 96 3390.24
16 1 0.3 18/08/2020 12:30:00 PM 48 1695.12
17 1 0.6 18/08/2020 6:00:00 PM 96 3390.24
18 1 0.6 19/08/2020 8:00:00 AM 96 3390.24
19 1 0.3 04/10/2021 8:00:00 AM 51.31 1812.01 4.10.218am
20 1 0.3 05/10/2021 8:00:00 AM 51.31 1812.01 5.10.21 8am
21 1 0.15 06/10/2021 8:00:00 AM 25.76 909.71 6.10.21 8am
22 1 0.15 07/10/2021 8:00:00 AM 25.78 910.42 7.10.21 8am
23 1 0.15 08/10/2021 12:00:00 PM 25.79 910.77 8.10.21 12pm
24 1 0.15 09/10/2021 8:00:00 AM 25.79 910.77
25 1 0.15 20/08/2020 12:00:00 PM 25 882.88
26 2 0.6 21/08/2020 8:00:00 AM 193 6815.79
27 4 0.45 21/08/2020 12:00:00 PM 289.5 10223.69
28 4 0.45 22/08/2020 8:00:00 AM 289.5 10223.69 04 Nos Gates opened @0.45M Each wef 21-08-2020 8.00PM
29 4 0.45 23/08/2020 12:00:00 PM 293.4 10361.42
30 4 0.5 23/08/2020 8:00:00 AM 388.5 13719.88
31 2 0.6 23/08/2020 4:00:00 PM 195 6886.42
32 2 0.6 24/08/2020 8:00:00 AM 195 6886.42 Gate opened on Dated 23/08/2020 at 4.00PM
33 2 0.6 24/08/2020 8:00:00 AM 195 6886.42
34 1 0.6 25/08/2020 8:00:00 AM 97.5 3443.21
35 1 0.15 10/10/2021 8:00:00 AM 25.79 910.77
36 1 0.15 09/10/2021 8:00:00 PM 25.79 910.77
37 1 0.6 26/08/2020 12:00:00 AM 97.5 3443.21
38 1 0.6 26/08/2020 12:00:00 AM 97.5 3443.21
39 1 0.6 27/08/2020 12:00:00 AM 97.5 3443.21
40 1 0.6 27/08/2020 8:00:00 AM 97.5 3443.21
41 2 0.6 27/08/2020 8:00:00 PM 195 6886.42
42 2 0.6 28/08/2020 12:00:00 AM 195 6886.42
43 4 0.75 28/08/2020 8:00:00 AM 490 17304.35 4 Gates opened at 7:00 am today
44 8 3.3 28/08/2020 1:45:00 PM 3999 141224.68
45 8 6.3 28/08/2020 6:00:00 PM 6956 245651.14
46 8 6.3 29/08/2020 12:00:00 AM 6956 245651.14 Actual Date of Gate Opening 28.08.2020 & Time 6.00 PM
47 8 2.7 29/08/2020 4:00:00 PM 3191 112690.16
48 8 2.7 30/08/2020 12:00:00 AM 3191 112690.16 Gates opened on dated 29.08.2020 at 4.00PM
49 4 1.33 30/08/2020 8:00:00 AM 471 16633.36
50 2 0.9 30/08/2020 12:00:00 PM 471 16633.36
51 2 0.9 30/08/2020 4:00:00 PM 286.5 10117.75
52 2 0.9 31/08/2020 12:00:00 AM 286.5 10117.75 Gates Opened on Dated 30.08.2020 at 4.00 PM
53 2 0.75 01/09/2020 12:00:00 AM 240.8 8503.85 31/12/2020 12.00PM
54 1 0.6 01/09/2020 1:00:00 PM 96.85 3420.26
55 1 0.3 01/09/2020 8:00:00 PM 48.91 1727.26
56 1 0.3 02/09/2020 12:00:00 AM 48.91 1727.26 01/09/2020 8.00PM
57 1 0.6 03/09/2020 12:00:00 AM 94.12 3323.85
58 1 0.6 04/09/2020 1:00:00 AM 97.48 3442.51
59 1 0.6 05/09/2020 12:00:00 AM 97.51 3443.57 04/09/2020 8.00 PM
60 1 0.6 06/09/2020 12:00:00 AM 97.5 3443.21 05/09/2020 8.00PM
61 1 0.3 06/09/2020 4:00:00 PM 97.5 3443.21
62 1 0.3 06/09/2020 4:00:00 PM 43.7 1543.27
63 1 0.3 07/09/2020 12:00:00 AM 49 1730.43
64 1 0.3 08/09/2020 12:00:00 AM 49 1730.43
65 1 0.6 09/09/2020 12:00:00 AM 97.95 3459.1
66 2 0.6 09/09/2020 4:00:00 PM 196 6921.74
67 2 0.6 10/09/2020 12:00:00 AM 196 6921.74
68 1 0.2 10/09/2020 12:00:00 PM 33.03 1166.45
69 2 0.6 11/09/2020 8:00:00 AM 195.6 6907.61
70 1 0.3 12/09/2020 8:00:00 AM 49.44 1745.97
71 1 0.3 12/09/2020 12:00:00 AM 98 3460.87
72 1 0.3 12/09/2020 4:00:00 PM 49.44 1745.97
73 1 0.3 12/09/2020 8:00:00 PM 49.44 1745.97
74 2 0.6 13/09/2020 8:00:00 AM 196.1 6925.27
75 1 0.6 13/09/2020 4:00:00 PM 195 6886.42
76 2 0.6 13/09/2020 8:00:00 PM 195 6886.42
77 1 0.6 15/09/2020 8:00:00 PM 97.85 3455.57
78 1 0.6 16/09/2020 12:00:00 PM 97.7 3450.28
79 1 0.6 17/09/2020 8:00:00 AM 195.5 6904.08
80 2 0.6 18/09/2020 12:00:00 AM 197 6957.05
81 1 0.6 18/09/2020 12:00:00 PM 98.09 3464.05
82 1 0.6 19/09/2020 8:00:00 AM 98.09 3464.05
83 1 0.6 20/09/2020 12:00:00 AM 98.09 3464.05
84 1 0.3 20/09/2020 8:00:00 AM 49.46 1746.68
85 1 0.15 21/09/2020 8:00:00 AM 24.85 877.58
86 1 0.15 22/09/2020 8:00:00 AM 24.87 878.28
87 1 0.6 22/09/2020 12:00:00 PM 98.15 3466.17
88 1 0.6 22/09/2020 8:00:00 PM 98.15 3466.17
89 1 0.6 23/09/2020 12:00:00 AM 98.15 3466.17
90 2 0.6 24/09/2020 8:00:00 PM 197 6957.05
91 2 0.6 25/09/2020 12:00:00 AM 197 6957.05
92 1 0.3 25/09/2020 8:00:00 PM 49.55 1749.86
93 1 0.3 26/09/2020 12:00:00 AM 49.55 1749.86
94 1 0.6 27/09/2020 12:00:00 AM 98.5 3478.53
95 1 0.6 28/09/2020 12:00:00 AM 98.5 3478.53
96 1 0.3 28/09/2020 12:00:00 PM 49.63 1752.68
97 1 0.3 29/09/2020 12:00:00 AM 49.63 1752.68
98 1 0.15 29/09/2020 12:00:00 PM 24.9 879.34
99 1 0.3 30/09/2020 8:00:00 AM 49.6 1751.62
100 0 0 30/09/2020 4:00:00 PM 0 0 ALL GATES ARE CLOSED
101 1 0.15 07/10/2020 9:00:00 PM 25.25 891.7 Gate re-opened
102 1 0.15 08/10/2020 12:00:00 PM 25.25 891.7
103 1 0.15 09/10/2020 12:00:00 PM 25.23 891
104 1 0.15 10/10/2020 12:00:00 AM 25.23 891
105 1 0.15 11/10/2020 8:00:00 AM 25.24 891.35
106 1 0.15 12/10/2020 12:00:00 PM 24.24 856.04
107 1 0.15 21/09/2021 8:00:00 PM 24.46 863.8
108 1 0.15 22/09/2021 8:00:00 AM 25.46 899.12 22/09/2021
109 1 0.15 23/09/2021 8:00:00 AM 25.59 903.71 23/09/2021
110 1 0.15 24/09/2021 8:00:00 AM 25.64 905.48 24.9.218am
111 1 0.3 24/09/2021 8:00:00 PM 51.3 1811.66
112 2 0.3 25/09/2021 8:00:00 AM 102.6 3623.32
113 2 0.45 26/09/2021 8:00:00 AM 152.9 5399.66 26/09/2021
114 1 0.15 27/09/2021 8:00:00 AM 25.71 907.95 27.9.21 8am
115 0 0 27/09/2021 12:00:00 PM 0 0 27.9.21 12pm
116 1 0.15 27/09/2021 12:00:00 PM 25.71 907.95 27.9.21 12pm
117 1 0.15 28/09/2021 8:00:00 AM 25.73 908.65 28/09/2021
118 1 0.3 28/09/2021 8:00:00 PM 51.28 1810.95
119 1 0.3 29/09/2021 8:00:00 AM 51.28 1810.95 29.8.21 8am
120 1 0.3 30/09/2021 8:00:00 AM 51.28 1810.95 30/09/2021
121 1 0.15 30/09/2021 4:00:00 PM 25.73 908.65
122 1 0.15 01/10/2021 8:00:00 AM 25.73 908.65 1.10.21 8am
123 1 0.15 02/10/2021 8:00:00 AM 25.73 908.65
124 1 0.15 03/10/2021 8:00:00 AM 25.73 908.65
125 1 0.15 03/10/2021 12:00:00 PM 25.73 908.65
126 1 15/10/2017 11:29:14 AM 17
127 1 22/12/2017 10:10:12 AM 16
128 1 25/01/2018 2:01:12 PM 16
129 1 27/01/2018 8:26:47 AM 16
130 1 25/05/2018 8:48:50 AM 14
131 2 0.6 15/08/2019 10:30:00 AM 200 7063
132 2 0.6 16/08/2019 8:10:00 AM 200 7063
133 1 0.15 16/08/2019 6:30:00 PM 25.3 893.47
134 1 0.15 17/08/2019 12:11:00 AM 25.3 893.47
135 2 0.3 17/08/2019 5:00:00 PM 100 3531.5
136 1 0.3 20/08/2019 8:00:00 AM 50.6 1786.94
137 2 0.15 17/08/2019 11:30:00 AM 50.6 1786.94
138 2 0.3 18/08/2019 12:32:00 AM 100 3531.5
139 2 0.3 19/08/2019 12:21:00 AM 100 3531.5
140 2 0.6 21/08/2019 9:15:00 AM 200 7063
141 2 0.3 21/08/2019 6:00:00 PM 100 3531.5
142 2 0.3 20/08/2019 12:01:00 AM 100 3531.5
143 2 0.6 20/08/2019 6:00:00 PM 200 7063
144 2 0.6 22/08/2019 12:01:00 AM 200 7063 gate opening since 21/8/2019at4pm
145 0 0 22/08/2019 10:00:00 AM 0 0 all gates are closed
146 2 0.3 24/08/2019 12:01:00 PM 101.4 3580.94
147 2 0.3 25/08/2019 12:01:00 AM 101.4 3582.35
148 2 0.3 25/08/2019 8:00:00 AM 101.4 3582.35
149 6 0.9 25/08/2019 4:00:00 PM 986 34820.59
150 6 0.9 26/08/2019 12:05:00 AM 986 34820.59
151 4 0.75 26/08/2019 8:00:00 AM 500 17657.5
152 8 1.8 27/08/2019 12:05:00 AM 2400 84756
153 0 0 27/08/2019 10:00:00 AM 0 0 all gates are closed at 10:00am
154 2 0.6 29/08/2019 4:00:00 PM 200 7063
155 2 0.3 29/08/2019 8:00:00 PM 100 3531.5
156 2 0.3 30/08/2019 8:00:00 PM 100 3531.5
157 2 0.3 30/08/2019 9:30:00 AM 100 3531.5
158 4 0.45 30/08/2019 4:00:00 PM 300 10594.5
159 2 0.3 31/08/2019 12:01:00 AM 100 3531.5
160 1 0.3 31/08/2019 8:00:00 PM 50 1765.75
161 1 1 01/09/2019 12:01:00 AM 50 1765.75
162 1 0.3 01/09/2019 9:22:00 AM 50 1765.75
163 2 0.3 02/09/2019 7:30:00 AM 100 3531.5
164 2 0.3 01/09/2019 7:30:00 PM 100 3531.5
165 2 0.3 02/09/2019 7:00:00 AM 100 3531.5
166 2 0.3 04/09/2019 9:15:00 AM 100 3531.5
167 4 1.5 02/09/2019 6:00:00 PM 500 17657.5
168 4 1.5 03/09/2019 12:10:00 AM 500 17657.5 gate opening since 2/9/2019
169 1 0.3 03/09/2019 12:00:00 PM 50 1765.75
170 4 0.75 05/09/2019 11:29:00 AM 500 17657.5
171 2 0.6 05/09/2019 4:00:00 PM 200 7063
172 2 0.3 05/09/2019 8:00:00 PM 100 3531.5
173 2 0.6 06/09/2019 12:01:00 AM 200 7063 gate opening since 5/9/2019 at 4:0pm
174 2 0.6 06/09/2019 8:00:00 AM 200 7063
175 2 0.6 06/09/2019 8:00:00 PM 200 7063
176 2 0.6 07/09/2019 1:00:00 AM 200 7063
177 2 0.6 07/09/2019 11:50:00 AM 200 7063
178 2 0.6 08/09/2019 8:00:00 AM 200 7063
179 6 1.4 08/09/2019 6:45:00 PM 1400 49441
180 6 1.4 09/09/2019 3:00:00 AM 1400 49441
181 8 0.8 09/09/2019 11:40:00 AM 800 28252
182 2 0.6 09/09/2019 4:00:00 PM 200 7063
183 2 0.3 10/09/2019 8:00:00 AM 100 3531.5
184 2 0.6 10/09/2019 8:30:00 AM 200 7063
185 2 0.6 11/09/2019 6:00:00 AM 200 7063
186 2 0.6 11/09/2019 8:00:00 AM 200 7063
187 2 0.6 12/09/2019 12:01:00 AM 200 7063
188 2 0.6 13/09/2019 3:25:00 AM 200 7063
189 2 0.3 13/09/2019 4:00:00 PM 100 3531.5
190 2 0.3 14/09/2019 12:01:00 AM 100 3531.5
191 2 0.3 14/09/2019 12:00:00 PM 100 3531.5
192 2 0.3 15/09/2019 8:00:00 AM 100 3531.5
193 2 0.3 16/09/2019 12:01:00 AM 100 3531.5
194 1 0.3 16/09/2019 10:00:00 AM 50 1765.75
195 1 0.3 16/09/2019 8:00:00 PM 50 1765.75
196 1 0.3 17/09/2019 12:01:00 AM 50 1765.75
197 2 0.6 17/09/2019 5:00:00 PM 200 7063
198 1 0.3 18/09/2019 4:00:00 PM 50 1765.75
199 2 0.6 18/09/2019 12:01:00 AM 200 7063
200 1 0.3 19/09/2019 8:00:00 AM 50 1765.75
201 2 0.6 18/09/2019 10:00:00 AM 200 7063
202 1 0.3 20/09/2019 12:01:00 AM 50 1765.75
203 1 0.3 21/09/2019 12:01:00 AM 50 1765.75
204 1 0.3 21/09/2019 9:00:00 AM 50 1765.75
205 1 0.6 23/09/2019 8:00:00 PM 100 3531.5
206 0 0 22/09/2019 9:00:00 AM 0 0 All Gates are closed.
207 1 0.3 22/09/2019 7:00:00 PM 50 1765.75
208 1 0.3 23/09/2019 1:18:00 AM 50 1765.75
209 1 0.3 23/09/2019 8:00:00 AM 50 1765.75
210 4 0.6 28/09/2019 12:01:00 AM 400 14126
211 1 0.6 24/09/2019 12:01:00 AM 100 3531.5
212 1 0.6 25/09/2019 8:00:00 PM 100 3531.5
213 1 0.6 23/09/2019 8:00:00 AM 100 3531.5
214 1 0.9 25/09/2019 8:00:00 AM 150 5297.25
215 1 0.6 26/09/2019 12:01:00 AM 100 3531.5
216 2 0.6 26/09/2019 4:00:00 PM 200 7063
217 2 0.6 27/09/2019 12:01:00 AM 200 7063
218 2 0.6 28/09/2019 10:05:00 AM 200 7063
219 4 0.6 27/09/2019 8:00:00 PM 400 14126
220 4 0.6 28/09/2019 8:00:00 PM 400 14126
221 4 0.6 29/09/2019 12:15:00 AM 400 14126
222 2 0.6 29/09/2019 9:30:00 AM 200 7063
223 2 0.6 30/09/2019 12:01:00 AM 200 7063
224 1 0.6 01/10/2019 4:00:00 PM 100 3531.5
225 2 0.6 01/10/2019 8:00:00 AM 200 7063
226 1 0.3 02/10/2019 10:00:00 AM 100 3531.5
227 1 0.3 03/10/2019 4:00:00 PM 50 1765.75
228 1 0.3 03/10/2019 4:00:00 PM 50 1765.75
229 1 0.15 06/10/2019 9:20:00 AM 25 882.88
230 0 0 02/10/2019 8:00:00 PM 0 0 all gates are closed
231 1 0.3 04/10/2019 12:00:00 PM 50 1765.75
232 1 0.25 09/10/2019 8:00:00 AM 42 1483.23
233 1 0.25 10/10/2019 2:00:00 AM 42 1483.23
234 0 0 10/10/2019 8:00:00 AM 0 0
235 1 0.15 13/10/2019 11:00:00 AM 25 882.88
236 1 0.15 04/10/2019 8:00:00 PM 25 882.88
237 1 0.15 05/10/2019 10:00:00 AM 25 882.88
238 1 0.75 07/10/2019 12:01:00 AM 40 1412.6
239 1 0.3 07/10/2019 8:00:00 AM 42 1483.23
240 1 0.2 08/10/2019 10:00:00 AM 527.4 18625.13
241 1 0.25 09/10/2019 12:01:00 AM 42 1483.23
242 1 0.2 08/10/2019 4:00:00 PM 42 1483.23
243 1 0.3 09/07/2020 5:00:00 PM 46.93 1657.33
244 1 0.3 10/07/2020 5:00:00 PM 46.6 1645.68
245 1 0.3 11/07/2020 8:00:00 AM 1.63 57.56
246 0 0 11/07/2020 8:00:00 PM 0 0
247 1 0.2 17/07/2020 12:01:00 PM 31.27 1104.3
248 1 0.2 18/07/2020 8:00:00 AM 31.27 1104.3
249 1 0.2 19/07/2020 8:00:00 AM 31.15 1100.06
250 1 0.2 20/07/2020 12:33:00 PM 31.15 1100.06
251 1 0.2 26/07/2020 8:00:00 AM 31.5 1112.42
252 1 0.2 27/07/2020 8:04:00 AM 31.51 1112.78
253 1 0.2 28/07/2020 8:00:00 AM 31.51 1112.78
254 1 0.2 29/07/2020 8:00:00 AM 31.51 1112.78
255 2 0.6 30/07/2020 12:00:05 PM 188 6639.22
256 2 0.6 31/07/2020 8:00:00 AM 186 6568.59 Each gates opened 0.60 m
257 1 0.2 01/08/2020 8:00:00 AM 31.4 1108.89
Powered by © Water Resources Department (MP). All Rights Reserved.